Time;durP1;ratioP1;P1;durP2;ratioP2;P2;SDS_P1;SDS_P2;PMS_P1;PMS_P2;Temp;Humidity;BMP_temperature;BMP_pressure;BME280_temperature;BME280_humidity;BME280_pressure;Samples;Min_cycle;Max_cycle;Signal;HPM_P1;HPM_P2
2022/06/05 00:01:26;;;;;;;31.70;19.88;;;10.40;99.90;;;;;;6248467;28;20059;-59
2022/06/05 00:04:37;;;;;;;28.83;19.25;;;10.40;99.90;;;;;;6248768;28;20046;-59
2022/06/05 00:07:47;;;;;;;28.98;19.73;;;10.40;99.90;;;;;;6244573;28;20058;-59
2022/06/05 00:10:53;;;;;;;28.35;18.55;;;10.30;99.90;;;;;;6225336;28;20050;-59
2022/06/05 00:13:55;;;;;;;31.63;19.65;;;10.40;99.90;;;;;;6225140;28;20052;-60
2022/06/05 00:16:58;;;;;;;25.55;18.40;;;10.40;99.90;;;;;;6225095;28;20478;-59
2022/06/05 00:19:59;;;;;;;30.75;18.85;;;10.40;99.90;;;;;;6223791;28;20049;-59
2022/06/05 00:23:03;;;;;;;26.65;19.05;;;10.40;99.90;;;;;;6225319;28;20042;-59
2022/06/05 00:26:16;;;;;;;26.83;17.85;;;10.30;99.90;;;;;;6225294;28;20042;-59
2022/06/05 00:29:43;;;;;;;25.25;17.50;;;10.30;99.90;;;;;;6222895;28;20049;-60
2022/06/05 00:32:50;;;;;;;26.52;18.73;;;10.30;99.90;;;;;;6223461;28;20049;-60
2022/06/05 00:35:58;;;;;;;26.52;19.88;;;10.30;99.90;;;;;;6223743;28;20046;-60
2022/06/05 00:39:09;;;;;;;28.73;19.05;;;10.30;99.90;;;;;;6224265;28;20088;-59
2022/06/05 00:42:16;;;;;;;29.60;18.58;;;10.30;99.90;;;;;;6229510;28;20458;-60
2022/06/05 00:45:19;;;;;;;29.30;18.95;;;10.30;99.90;;;;;;6248809;28;20060;-60
2022/06/05 00:48:21;;;;;;;25.90;18.33;;;10.30;99.90;;;;;;6249121;28;20052;-60
2022/06/05 00:51:23;;;;;;;28.92;18.38;;;10.30;99.90;;;;;;6248728;28;20041;-60
2022/06/05 00:54:26;;;;;;;27.77;18.40;;;10.30;99.90;;;;;;6247894;28;20482;-60
2022/06/05 00:57:31;;;;;;;33.05;18.88;;;10.30;99.90;;;;;;6232345;28;20042;-59
2022/06/05 01:00:36;;;;;;;33.72;19.55;;;10.30;99.90;;;;;;6223669;28;20053;-60
2022/06/05 01:03:38;;;;;;;27.13;18.63;;;10.30;99.90;;;;;;6224165;28;20046;-60
2022/06/05 01:06:40;;;;;;;29.80;19.55;;;10.20;99.90;;;;;;6223785;28;20060;-59
2022/06/05 01:09:45;;;;;;;31.77;19.90;;;10.20;99.90;;;;;;6224153;28;20045;-59
2022/06/05 01:12:59;;;;;;;27.20;18.92;;;10.20;99.90;;;;;;6222567;28;20064;-59
2022/06/05 01:16:11;;;;;;;32.80;20.05;;;10.20;99.90;;;;;;6223280;28;20418;-59
2022/06/05 01:19:32;;;;;;;32.38;20.05;;;10.20;99.90;;;;;;6223686;28;20100;-59
2022/06/05 01:23:12;;;;;;;31.30;20.42;;;10.20;99.90;;;;;;6224877;28;20493;-58
2022/06/05 01:26:25;;;;;;;35.80;20.05;;;10.10;99.90;;;;;;6237380;28;20054;-59
2022/06/05 01:29:35;;;;;;;32.13;20.92;;;10.10;99.90;;;;;;6246656;28;20058;-59
2022/06/05 01:32:43;;;;;;;37.35;21.95;;;10.10;99.90;;;;;;6245319;28;20050;-59
2022/06/05 01:35:59;;;;;;;31.75;20.95;;;10.20;99.90;;;;;;6246672;28;20053;-59
2022/06/05 01:39:06;;;;;;;38.22;22.02;;;10.10;99.90;;;;;;6246215;28;20053;-59
2022/06/05 01:42:14;;;;;;;31.45;21.20;;;10.10;99.90;;;;;;6245744;28;20406;-59
2022/06/05 01:45:20;;;;;;;39.65;21.88;;;10.20;99.90;;;;;;6246646;28;20046;-59
2022/06/05 01:48:27;;;;;;;36.13;21.33;;;10.30;99.90;;;;;;6247533;28;20132;-59
2022/06/05 01:51:34;;;;;;;35.28;21.67;;;10.30;99.90;;;;;;6227338;28;20085;-61
2022/06/05 01:54:40;;;;;;;35.95;22.50;;;10.40;99.90;;;;;;6222617;28;20516;-59
2022/06/05 01:57:44;;;;;;;36.28;20.27;;;10.40;99.90;;;;;;6222857;28;20050;-59
2022/06/05 02:00:51;;;;;;;39.13;23.20;;;10.30;99.90;;;;;;6221437;28;20050;-59
2022/06/05 02:03:57;;;;;;;39.78;22.70;;;10.30;99.90;;;;;;6227927;28;20041;-59
2022/06/05 02:07:04;;;;;;;38.47;21.70;;;10.30;99.90;;;;;;6239296;28;20060;-59
2022/06/05 02:10:09;;;;;;;41.08;23.63;;;10.30;99.90;;;;;;6222691;28;20056;-59
2022/06/05 02:13:13;;;;;;;38.22;21.58;;;10.30;99.90;;;;;;6220970;28;20053;-59
2022/06/05 02:16:15;;;;;;;42.50;22.00;;;10.30;99.90;;;;;;6221751;28;20054;-59
2022/06/05 02:19:19;;;;;;;41.33;23.77;;;10.30;99.90;;;;;;6222551;28;20050;-59
2022/06/05 02:22:26;;;;;;;43.70;22.85;;;10.30;99.90;;;;;;6221719;28;20054;-59
2022/06/05 02:25:28;;;;;;;47.95;22.90;;;10.30;99.90;;;;;;6225630;28;20405;-60
2022/06/05 02:28:32;;;;;;;35.97;22.45;;;10.40;99.90;;;;;;6245409;28;20050;-59
2022/06/05 02:31:48;;;;;;;37.28;23.90;;;10.30;99.90;;;;;;6246797;28;20053;-59
2022/06/05 02:34:59;;;;;;;36.97;22.73;;;10.40;99.90;;;;;;6247038;28;20060;-59
2022/06/05 02:38:20;;;;;;;37.75;23.45;;;10.40;99.90;;;;;;6246435;28;20052;-59
2022/06/05 02:41:32;;;;;;;38.75;22.05;;;10.40;99.90;;;;;;6244851;28;20391;-59
2022/06/05 02:44:44;;;;;;;45.25;24.40;;;10.40;99.90;;;;;;6245547;28;20133;-59
2022/06/05 02:47:51;;;;;;;41.83;23.73;;;10.40;99.90;;;;;;6246651;28;20045;-59
2022/06/05 02:51:01;;;;;;;46.50;25.00;;;10.40;99.90;;;;;;6248365;28;20056;-59
2022/06/05 02:54:03;;;;;;;44.85;23.63;;;10.40;99.90;;;;;;6251544;28;20049;-59
2022/06/05 02:57:06;;;;;;;41.63;23.92;;;10.50;99.90;;;;;;6249430;28;20054;-60
2022/06/05 03:00:13;;;;;;;47.57;24.60;;;10.50;99.90;;;;;;6226811;28;20069;-59
2022/06/05 03:03:29;;;;;;;45.25;22.35;;;10.50;99.90;;;;;;6226910;28;20061;-59
2022/06/05 03:06:33;;;;;;;44.97;23.95;;;10.50;99.90;;;;;;6251538;28;20132;-59
2022/06/05 03:09:35;;;;;;;43.80;23.38;;;10.50;99.90;;;;;;6251140;28;20057;-60
2022/06/05 03:12:37;;;;;;;50.47;24.63;;;10.50;99.90;;;;;;6251489;28;20049;-59
2022/06/05 03:15:42;;;;;;;48.08;24.77;;;10.60;99.90;;;;;;6237759;28;20521;-59
2022/06/05 03:18:44;;;;;;;48.65;24.70;;;10.60;99.90;;;;;;6226778;28;20129;-59
2022/06/05 03:21:46;;;;;;;44.67;24.02;;;10.50;99.90;;;;;;6225188;28;20050;-59
2022/06/05 03:24:47;;;;;;;46.70;25.40;;;10.50;99.90;;;;;;6225349;28;20061;-60
2022/06/05 03:27:49;;;;;;;49.22;24.58;;;10.50;99.90;;;;;;6226124;28;20046;-59
2022/06/05 03:30:53;;;;;;;45.65;24.17;;;10.60;99.90;;;;;;6226635;28;20046;-60
2022/06/05 03:33:56;;;;;;;49.30;25.20;;;10.60;99.90;;;;;;6226529;28;20050;-59
2022/06/05 03:36:58;;;;;;;48.38;25.92;;;10.60;99.90;;;;;;6245876;28;20091;-59
2022/06/05 03:40:00;;;;;;;42.30;24.20;;;10.70;99.90;;;;;;6250507;28;20064;-59
2022/06/05 03:43:03;;;;;;;42.72;24.25;;;10.70;99.90;;;;;;6248684;28;20045;-59
2022/06/05 03:46:08;;;;;;;50.00;24.92;;;10.80;99.90;;;;;;6249097;28;20053;-59
2022/06/05 03:49:11;;;;;;;43.35;24.92;;;10.80;99.90;;;;;;6248368;28;20056;-59
2022/06/05 03:52:13;;;;;;;42.72;24.70;;;10.80;99.90;;;;;;6250750;28;20450;-60
2022/06/05 03:55:19;;;;;;;43.20;25.73;;;10.90;99.90;;;;;;6248472;28;20060;-59
2022/06/05 03:58:20;;;;;;;42.65;24.85;;;10.90;99.90;;;;;;6249708;28;20406;-59
2022/06/05 04:01:26;;;;;;;42.60;25.02;;;10.90;99.90;;;;;;6249969;28;20437;-59
2022/06/05 04:04:28;;;;;;;41.80;24.98;;;11.00;99.90;;;;;;6250164;28;20049;-59
2022/06/05 04:07:30;;;;;;;44.92;24.65;;;11.00;99.90;;;;;;6229355;28;20494;-59
2022/06/05 04:10:32;;;;;;;46.10;24.23;;;11.00;99.90;;;;;;6225462;28;20046;-59
2022/06/05 04:13:34;;;;;;;43.22;24.67;;;11.00;99.90;;;;;;6225113;28;20053;-59
2022/06/05 04:16:40;;;;;;;43.28;25.17;;;11.10;99.90;;;;;;6225410;28;20045;-59
2022/06/05 04:19:43;;;;;;;38.92;24.90;;;11.10;99.90;;;;;;6224735;28;20422;-59
2022/06/05 04:22:45;;;;;;;38.75;24.50;;;11.20;99.90;;;;;;6229271;28;20410;-59
2022/06/05 04:25:47;;;;;;;41.83;24.40;;;11.30;99.90;;;;;;6247736;28;20045;-59
2022/06/05 04:28:49;;;;;;;40.28;24.27;;;11.30;99.90;;;;;;6249440;28;20060;-59
2022/06/05 04:31:52;;;;;;;38.75;24.58;;;11.40;99.90;;;;;;6249216;28;20136;-58
2022/06/05 04:34:54;;;;;;;37.53;23.85;;;11.50;99.90;;;;;;6248041;28;20054;-59
2022/06/05 04:37:56;;;;;;;40.80;24.77;;;11.50;99.90;;;;;;6249152;28;20398;-59
2022/06/05 04:40:58;;;;;;;37.25;23.95;;;11.60;99.90;;;;;;6232012;28;20057;-59
2022/06/05 04:44:00;;;;;;;39.88;24.77;;;11.70;99.90;;;;;;6224822;28;20053;-60
2022/06/05 04:47:04;;;;;;;36.50;23.48;;;11.70;99.90;;;;;;6223323;28;20057;-59
2022/06/05 04:50:07;;;;;;;33.00;22.88;;;11.80;99.90;;;;;;6224819;28;20045;-59
2022/06/05 04:53:09;;;;;;;31.25;23.13;;;11.90;99.90;;;;;;6224065;28;20158;-59
2022/06/05 04:56:13;;;;;;;34.13;21.67;;;12.00;99.90;;;;;;6223478;28;20422;-59
2022/06/05 04:59:15;;;;;;;35.63;23.13;;;12.20;99.90;;;;;;6223679;28;20053;-59
2022/06/05 05:02:19;;;;;;;32.30;22.17;;;12.20;99.90;;;;;;6223127;28;20050;-59
2022/06/05 05:05:20;;;;;;;;;;;12.30;99.90;;;;;;6228589;28;20049;-59
2022/06/05 05:08:22;;;;;;;31.80;21.90;;;12.50;99.90;;;;;;6247031;28;19928;-59
2022/06/05 05:11:26;;;;;;;28.65;21.80;;;12.60;99.90;;;;;;6248503;28;20513;-60
2022/06/05 05:14:28;;;;;;;32.17;21.63;;;12.60;99.90;;;;;;6236309;28;20050;-60
2022/06/05 05:17:31;;;;;;;30.23;21.55;;;12.70;99.90;;;;;;6223695;28;20558;-59
2022/06/05 05:20:33;;;;;;;34.45;22.33;;;12.70;99.90;;;;;;6222172;28;20072;-59
2022/06/05 05:23:35;;;;;;;30.02;21.40;;;12.70;99.90;;;;;;6227274;28;20057;-60
2022/06/05 05:26:37;;;;;;;34.03;21.83;;;12.80;99.90;;;;;;6246916;28;20410;-59
2022/06/05 05:29:40;;;;;;;29.17;20.95;;;12.80;99.90;;;;;;6248031;28;20045;-59
2022/06/05 05:32:43;;;;;;;33.80;22.60;;;12.90;99.90;;;;;;6246963;28;20060;-59
2022/06/05 05:35:45;;;;;;;31.40;22.23;;;13.00;99.90;;;;;;6248191;28;20478;-59
2022/06/05 05:42:11;;;;;;;27.05;20.75;;;13.30;99.90;;;;;;6247979;28;20045;-59
2022/06/05 05:45:13;;;;;;;27.33;19.80;;;13.50;99.90;;;;;;6246351;28;20061;-59
2022/06/05 05:48:16;;;;;;;25.90;20.38;;;13.80;99.90;;;;;;6247059;28;20136;-59
2022/06/05 05:51:19;;;;;;;10.02;8.18;;;14.20;99.90;;;;;;6246305;28;20061;-59
2022/06/05 05:54:21;;;;;;;22.00;17.50;;;14.20;99.90;;;;;;6247703;28;20052;-59
2022/06/05 05:57:23;;;;;;;23.17;17.55;;;14.40;99.90;;;;;;6245832;28;20081;-59
2022/06/05 06:00:25;;;;;;;20.92;16.42;;;14.40;99.90;;;;;;6247056;28;20045;-59
2022/06/05 06:03:28;;;;;;;20.98;15.32;;;14.60;99.90;;;;;;6246224;28;20046;-59
2022/06/05 06:06:32;;;;;;;20.27;15.25;;;14.70;99.90;;;;;;6244890;28;20386;-60
2022/06/05 06:09:35;;;;;;;17.10;13.70;;;14.90;99.90;;;;;;6246018;28;20045;-59
2022/06/05 06:12:37;;;;;;;20.43;15.70;;;15.00;99.90;;;;;;6244921;28;20057;-59
2022/06/05 06:15:39;;;;;;;9.85;8.00;;;15.10;99.90;;;;;;6246923;28;20502;-59
2022/06/05 06:18:43;;;;;;;18.20;14.82;;;15.10;99.90;;;;;;6245688;28;20405;-59
2022/06/05 06:21:45;;;;;;;20.08;14.63;;;15.10;99.90;;;;;;6241579;28;20050;-60
2022/06/05 06:24:47;;;;;;;17.95;13.73;;;15.10;99.90;;;;;;6221482;28;20041;-58
2022/06/05 06:27:49;;;;;;;12.23;10.93;;;15.10;99.90;;;;;;6221993;28;20399;-59
2022/06/05 06:30:50;;;;;;;15.77;13.55;;;15.20;99.90;;;;;;6222231;28;20054;-58
2022/06/05 06:33:54;;;;;;;17.85;14.00;;;15.20;99.90;;;;;;6221339;28;20053;-59
2022/06/05 06:36:57;;;;;;;18.23;14.30;;;15.30;99.90;;;;;;6222346;28;20509;-58
2022/06/05 06:39:58;;;;;;;17.73;13.55;;;15.40;99.90;;;;;;6221369;28;20050;-58
2022/06/05 06:43:00;;;;;;;13.45;9.80;;;15.30;99.90;;;;;;6222146;28;20069;-59
2022/06/05 06:46:03;;;;;;;17.38;14.55;;;15.40;99.90;;;;;;6221879;28;20406;-58
2022/06/05 06:49:07;;;;;;;16.00;13.05;;;15.50;99.90;;;;;;6222281;28;20422;-58
2022/06/05 06:52:09;;;;;;;15.35;11.63;;;15.50;99.90;;;;;;6229134;28;20048;-59
2022/06/05 06:55:13;;;;;;;16.95;12.73;;;15.60;99.90;;;;;;6244281;28;20049;-58
2022/06/05 06:58:15;;;;;;;17.48;14.25;;;15.70;99.90;;;;;;6246425;28;20049;-59
2022/06/05 07:01:17;;;;;;;17.98;14.18;;;15.80;99.90;;;;;;6246742;28;20058;-59
2022/06/05 07:04:21;;;;;;;17.52;14.00;;;15.90;99.90;;;;;;6245476;28;20056;-58
2022/06/05 07:07:23;;;;;;;;;;;16.10;99.90;;;;;;6245493;28;20092;-58
2022/06/05 07:10:25;;;;;;;17.23;14.55;;;16.40;99.90;;;;;;6246058;28;20387;-59
2022/06/05 07:13:27;;;;;;;18.05;13.68;;;16.80;99.90;;;;;;6239327;28;20477;-59
2022/06/05 07:16:29;;;;;;;16.58;13.48;;;17.20;99.90;;;;;;6246577;28;20052;-59
2022/06/05 07:19:32;;;;;;;16.77;12.95;;;17.50;99.90;;;;;;6246340;28;20053;-59
2022/06/05 07:22:34;;;;;;;16.27;12.65;;;17.80;99.90;;;;;;6245140;28;20045;-59
2022/06/05 07:25:37;;;;;;;18.92;13.30;;;18.00;99.90;;;;;;6242043;28;20474;-59
2022/06/05 07:28:39;;;;;;;14.23;11.60;;;18.40;99.90;;;;;;6221927;28;20046;-59
2022/06/05 07:31:41;;;;;;;11.20;9.18;;;18.80;99.90;;;;;;6242247;28;20053;-59
2022/06/05 07:34:45;;;;;;;11.80;10.18;;;18.90;99.90;;;;;;6245092;28;20046;-59
2022/06/05 07:37:47;;;;;;;8.35;7.25;;;19.20;99.90;;;;;;6239028;28;20506;-59
2022/06/05 07:40:49;;;;;;;13.30;10.40;;;19.20;99.90;;;;;;6224987;28;20061;-59
2022/06/05 07:43:50;;;;;;;9.60;7.85;;;19.30;99.90;;;;;;6226121;28;20042;-60
2022/06/05 07:46:53;;;;;;;12.05;8.88;;;19.40;99.90;;;;;;6226804;28;20046;-59
2022/06/05 07:49:56;;;;;;;15.13;10.52;;;19.40;99.90;;;;;;6225828;28;20490;-58
2022/06/05 07:56:17;;;;;;;6.38;5.78;;;19.60;99.90;;;;;;6225433;28;20090;-61
2022/06/05 07:59:20;;;;;;;13.93;10.52;;;19.70;99.90;;;;;;6225538;28;20046;-58
2022/06/05 08:02:24;;;;;;;11.88;9.35;;;19.80;99.90;;;;;;6225643;28;20076;-60
2022/06/05 08:05:27;;;;;;;9.38;8.02;;;20.00;99.90;;;;;;6225993;28;20053;-59
2022/06/05 08:08:29;;;;;;;6.20;5.47;;;20.10;99.90;;;;;;6232854;28;20055;-59
2022/06/05 08:11:32;;;;;;;10.00;8.48;;;20.20;99.90;;;;;;6248805;28;20136;-61
2022/06/05 08:14:35;;;;;;;10.90;8.57;;;20.20;99.90;;;;;;6248505;28;20059;-60
2022/06/05 08:17:38;;;;;;;9.25;8.13;;;20.20;99.90;;;;;;6249513;28;20056;-59
2022/06/05 08:20:41;;;;;;;13.95;8.18;;;20.30;99.90;;;;;;6243586;28;20136;-60
2022/06/05 08:23:43;;;;;;;9.68;8.02;;;20.40;99.90;;;;;;6225433;28;20042;-60
2022/06/05 08:26:45;;;;;;;6.15;5.35;;;20.50;99.90;;;;;;6224954;28;20046;-60
2022/06/05 08:29:47;;;;;;;11.38;7.72;;;20.50;99.90;;;;;;6224777;28;20483;-60
2022/06/05 08:32:49;;;;;;;9.00;7.78;;;20.70;99.90;;;;;;6225208;28;20054;-60
2022/06/05 08:35:52;;;;;;;8.73;5.75;;;20.70;99.90;;;;;;6223794;28;20049;-58
2022/06/05 08:42:20;;;;;;;6.10;4.80;;;20.70;99.90;;;;;;6249313;28;20053;-59
2022/06/05 08:45:25;;;;;;;10.57;8.02;;;20.70;99.90;;;;;;6249380;28;20046;-58
2022/06/05 08:48:31;;;;;;;9.93;6.82;;;20.70;99.90;;;;;;6246857;28;20478;-59
2022/06/05 08:51:43;;;;;;;9.90;7.32;;;20.80;99.90;;;;;;6248952;28;20045;-59
2022/06/05 08:54:53;;;;;;;6.70;4.72;;;20.70;99.90;;;;;;6242569;28;20281;-59
2022/06/05 08:57:59;;;;;;;9.98;7.68;;;20.80;99.90;;;;;;6223958;28;20379;-59
2022/06/05 09:01:06;;;;;;;9.05;8.07;;;20.80;99.90;;;;;;6224138;28;20057;-59
2022/06/05 09:04:39;;;;;;;9.90;7.97;;;20.70;99.90;;;;;;6224435;28;20054;-58
2022/06/05 09:07:45;;;;;;;8.60;7.72;;;20.80;99.90;;;;;;6224880;28;20050;-58
2022/06/05 09:10:49;;;;;;;8.38;7.43;;;20.80;99.90;;;;;;6247483;28;20417;-59
2022/06/05 09:13:58;;;;;;;7.75;6.95;;;20.80;99.90;;;;;;6243454;28;20068;-59
2022/06/05 09:17:12;;;;;;;9.77;7.45;;;20.80;99.90;;;;;;6247009;28;20060;-59
2022/06/05 09:20:16;;;;;;;7.38;6.28;;;20.80;99.90;;;;;;6247864;28;20049;-59
2022/06/05 09:23:34;;;;;;;9.20;7.22;;;20.90;99.90;;;;;;6248420;28;20053;-59
2022/06/05 09:26:42;;;;;;;9.77;7.10;;;20.90;99.90;;;;;;6247976;28;20046;-59
2022/06/05 09:29:50;;;;;;;9.00;7.18;;;20.90;99.90;;;;;;6245653;28;20135;-59
2022/06/05 09:33:07;;;;;;;10.52;7.25;;;20.90;99.90;;;;;;6247828;28;20054;-59
2022/06/05 09:36:13;;;;;;;9.25;7.75;;;21.10;99.90;;;;;;6246329;28;20053;-58
2022/06/05 09:39:27;;;;;;;5.45;4.97;;;21.20;99.90;;;;;;6247780;28;20052;-59
2022/06/05 09:42:52;;;;;;;9.30;7.15;;;21.30;99.90;;;;;;6246480;28;20060;-59
2022/06/05 09:46:15;;;;;;;8.63;6.68;;;21.30;99.90;;;;;;6247167;28;20174;-59
2022/06/05 09:49:22;;;;;;;6.13;5.10;;;21.20;99.90;;;;;;6247276;28;20041;-60
2022/06/05 09:52:26;;;;;;;8.30;7.50;;;21.20;99.90;;;;;;6246576;28;20386;-59
2022/06/05 09:55:45;;;;;;;7.55;6.72;;;21.30;99.90;;;;;;6247268;28;20045;-59
2022/06/05 09:59:12;;;;;;;7.32;5.75;;;21.40;99.90;;;;;;6246467;28;20072;-59
2022/06/05 10:02:15;;;;;;;10.57;7.03;;;21.60;99.90;;;;;;6246208;28;20053;-59
2022/06/05 10:05:25;;;;;;;6.67;5.27;;;21.70;99.90;;;;;;6221862;28;20405;-58
2022/06/05 10:08:37;;;;;;;8.70;7.30;;;21.90;99.90;;;;;;6221425;28;20057;-59
2022/06/05 10:11:50;;;;;;;6.32;5.72;;;21.90;99.90;;;;;;6223061;28;20049;-59
2022/06/05 10:14:58;;;;;;;6.72;5.95;;;22.00;99.90;;;;;;6246051;28;20049;-60
2022/06/05 10:18:04;;;;;;;5.63;5.13;;;22.10;99.90;;;;;;6247083;28;20527;-59
2022/06/05 10:21:08;;;;;;;8.27;6.25;;;22.20;99.90;;;;;;6230129;28;20050;-59
2022/06/05 10:24:27;;;;;;;7.10;5.63;;;22.20;99.90;;;;;;6221341;28;20053;-59
2022/06/05 10:27:31;;;;;;;5.10;4.60;;;22.30;99.90;;;;;;6223774;28;20049;-58
2022/06/05 10:30:41;;;;;;;6.70;5.70;;;22.30;99.90;;;;;;6222126;28;20042;-58
2022/06/05 10:33:49;;;;;;;7.43;5.32;;;22.30;99.90;;;;;;6222295;28;20069;-59
2022/06/05 10:37:02;;;;;;;6.55;4.75;;;22.30;99.90;;;;;;6228604;28;20046;-58
2022/06/05 10:40:12;;;;;;;9.40;6.47;;;22.40;99.90;;;;;;6230425;28;20046;-58
2022/06/05 10:43:22;;;;;;;8.93;6.28;;;22.50;99.90;;;;;;6220822;28;20050;-59
2022/06/05 10:46:29;;;;;;;6.70;5.07;;;22.60;99.90;;;;;;6228289;28;20050;-59
2022/06/05 10:49:37;;;;;;;8.38;6.15;;;22.70;99.90;;;;;;6245434;28;20061;-58
2022/06/05 10:52:46;;;;;;;6.55;5.43;;;22.70;99.90;;;;;;6245785;28;20068;-58
2022/06/05 10:56:17;;;;;;;10.38;5.07;;;22.80;99.90;;;;;;6244509;28;20065;-58
2022/06/05 10:59:29;;;;;;;5.18;4.68;;;22.70;99.90;;;;;;6246259;28;20052;-58
2022/06/05 11:03:02;;;;;;;5.25;4.38;;;22.80;99.90;;;;;;6247000;28;20057;-60
2022/06/05 11:06:21;;;;;;;4.88;4.40;;;22.90;99.90;;;;;;6246370;28;20061;-59
2022/06/05 11:09:36;;;;;;;5.03;4.30;;;23.00;99.90;;;;;;6244835;28;20057;-60
2022/06/05 11:16:21;;;;;;;6.07;5.13;;;22.90;99.90;;;;;;6226803;28;20077;-60
2022/06/05 11:19:33;;;;;;;5.70;5.05;;;22.90;99.90;;;;;;6226666;28;20060;-60
2022/06/05 11:22:38;;;;;;;7.97;5.30;;;22.90;99.90;;;;;;6226872;28;20057;-59
2022/06/05 11:25:52;;;;;;;5.10;4.50;;;22.90;99.90;;;;;;6226592;28;20053;-60
2022/06/05 11:29:03;;;;;;;6.97;5.45;;;23.00;99.90;;;;;;6226622;28;20041;-60
2022/06/05 11:32:23;;;;;;;4.70;4.30;;;22.90;99.90;;;;;;6226586;28;20050;-60
2022/06/05 11:35:35;;;;;;;6.32;4.88;;;22.90;99.90;;;;;;6226037;28;20498;-60
2022/06/05 11:38:46;;;;;;;7.60;4.95;;;23.00;99.90;;;;;;6229064;28;20064;-60
2022/06/05 11:41:54;;;;;;;4.78;4.30;;;23.00;99.90;;;;;;6249085;28;20082;-60
2022/06/05 11:45:09;;;;;;;6.00;4.93;;;23.00;99.90;;;;;;6249763;28;20076;-60
2022/06/05 11:48:19;;;;;;;6.05;4.88;;;23.10;99.90;;;;;;6249153;28;20061;-60
2022/06/05 11:51:26;;;;;;;5.40;4.90;;;23.20;99.90;;;;;;6250439;28;20045;-60
2022/06/05 11:54:37;;;;;;;6.70;4.20;;;23.20;99.90;;;;;;6250038;28;20514;-60
2022/06/05 11:57:47;;;;;;;6.68;5.35;;;23.20;99.90;;;;;;6250037;28;20060;-60
2022/06/05 12:00:53;;;;;;;6.47;4.55;;;23.10;99.90;;;;;;6250211;28;20045;-60
2022/06/05 12:04:05;;;;;;;5.57;4.95;;;23.20;99.90;;;;;;6248029;28;20046;-60
2022/06/05 12:07:07;;;;;;;5.60;4.00;;;23.20;99.90;;;;;;6250046;28;20524;-59
2022/06/05 12:10:16;;;;;;;5.05;4.13;;;23.20;99.90;;;;;;6247425;28;20033;-60
2022/06/05 12:13:48;;;;;;;5.07;4.47;;;23.20;99.90;;;;;;6249662;28;20046;-60
2022/06/05 12:16:55;;;;;;;5.15;4.28;;;23.20;99.90;;;;;;6225010;28;20054;-60
2022/06/05 12:20:02;;;;;;;5.82;4.38;;;23.20;99.90;;;;;;6224575;28;20050;-60
2022/06/05 12:23:14;;;;;;;5.15;4.47;;;23.20;99.90;;;;;;6223693;28;20072;-60
2022/06/05 12:26:25;;;;;;;7.10;5.57;;;23.10;99.90;;;;;;6224100;28;20064;-60
2022/06/05 12:29:34;;;;;;;7.80;5.38;;;23.10;99.90;;;;;;6223727;28;20421;-59
2022/06/05 12:32:42;;;;;;;5.60;5.03;;;23.00;99.90;;;;;;6225409;28;20042;-60
2022/06/05 12:35:50;;;;;;;8.55;4.57;;;23.00;99.90;;;;;;6225369;28;20056;-59
2022/06/05 12:38:57;;;;;;;6.85;5.53;;;23.00;99.90;;;;;;6240249;28;20060;-58
2022/06/05 12:42:17;;;;;;;6.40;5.45;;;23.00;99.90;;;;;;6232765;28;20453;-58
2022/06/05 12:45:25;;;;;;;4.95;4.38;;;23.00;99.90;;;;;;6244330;28;20054;-60
2022/06/05 12:48:31;;;;;;;6.57;4.85;;;23.00;99.90;;;;;;6223474;28;20414;-59
2022/06/05 12:51:35;;;;;;;4.82;4.43;;;23.00;99.90;;;;;;6223492;28;20391;-59
2022/06/05 12:54:41;;;;;;;;;;;23.00;99.90;;;;;;6245441;28;20425;-58
2022/06/05 12:57:54;;;;;;;5.75;4.70;;;23.10;99.90;;;;;;6248659;28;20288;-58
2022/06/05 13:01:01;;;;;;;7.10;4.97;;;23.00;99.90;;;;;;6248505;28;20046;-57
2022/06/05 13:04:10;;;;;;;5.72;5.13;;;23.10;99.90;;;;;;6248835;28;20045;-58
2022/06/05 13:07:20;;;;;;;4.70;4.28;;;23.10;99.90;;;;;;6248809;28;20084;-59
2022/06/05 13:10:31;;;;;;;4.80;4.40;;;23.00;99.90;;;;;;6245885;28;20498;-59
2022/06/05 13:13:40;;;;;;;4.80;4.40;;;23.00;99.90;;;;;;6247330;28;20049;-59
2022/06/05 13:16:52;;;;;;;5.38;4.80;;;23.00;99.90;;;;;;6223791;28;20057;-59
2022/06/05 13:19:59;;;;;;;5.25;4.75;;;23.00;99.90;;;;;;6222837;28;20442;-59
2022/06/05 13:23:10;;;;;;;4.95;4.47;;;23.00;99.90;;;;;;6222543;28;20046;-59
2022/06/05 13:26:23;;;;;;;4.60;4.20;;;23.00;99.90;;;;;;6224332;28;20046;-59
2022/06/05 13:29:36;;;;;;;6.80;4.53;;;23.00;99.90;;;;;;6223478;28;20046;-59
2022/06/05 13:32:50;;;;;;;4.45;4.10;;;22.90;99.90;;;;;;6223720;28;20073;-59
2022/06/05 13:35:59;;;;;;;5.03;4.53;;;23.00;99.90;;;;;;6221687;28;20054;-59
2022/06/05 13:39:17;;;;;;;5.90;4.60;;;23.00;99.90;;;;;;6222637;28;20049;-59
2022/06/05 13:42:22;;;;;;;6.20;4.88;;;23.00;99.90;;;;;;6221774;28;20407;-59
2022/06/05 13:45:32;;;;;;;7.20;4.70;;;23.00;99.90;;;;;;6222475;28;20054;-58
2022/06/05 13:48:39;;;;;;;4.65;4.03;;;23.10;99.90;;;;;;6222854;28;20057;-59
2022/06/05 13:51:54;;;;;;;5.55;4.78;;;23.10;99.90;;;;;;6222126;28;20450;-58
2022/06/05 13:55:03;;;;;;;6.60;4.57;;;23.00;99.90;;;;;;6222585;28;20045;-58
2022/06/05 13:58:14;;;;;;;4.47;4.05;;;23.00;99.90;;;;;;6223057;28;20042;-58
2022/06/05 14:01:29;;;;;;;5.68;4.55;;;23.00;99.90;;;;;;6232268;28;20486;-58
2022/06/05 14:04:34;;;;;;;7.13;5.07;;;23.00;99.90;;;;;;6246419;28;20053;-59
2022/06/05 14:07:42;;;;;;;7.00;5.20;;;23.00;99.90;;;;;;6247069;28;20046;-58
2022/06/05 14:10:56;;;;;;;4.82;4.32;;;23.00;99.90;;;;;;6245328;28;20120;-59
2022/06/05 14:13:58;;;;;;;5.38;4.88;;;23.00;99.90;;;;;;6237263;28;20053;-59
2022/06/05 14:17:00;;;;;;;4.82;4.32;;;22.90;99.90;;;;;;6247234;28;20045;-58
2022/06/05 14:20:08;;;;;;;10.23;4.55;;;22.90;99.90;;;;;;6246188;28;20048;-58
2022/06/05 14:23:11;;;;;;;4.40;4.00;;;22.90;99.90;;;;;;6247149;28;20586;-59
2022/06/05 14:26:17;;;;;;;5.97;4.82;;;22.90;99.90;;;;;;6246907;28;20413;-58
2022/06/05 14:29:23;;;;;;;5.93;4.18;;;22.90;99.90;;;;;;6246908;28;20045;-59
2022/06/05 14:32:29;;;;;;;6.65;4.03;;;22.90;99.90;;;;;;6246645;28;20045;-59
2022/06/05 14:35:34;;;;;;;5.70;4.68;;;22.90;99.90;;;;;;6245377;28;20045;-59
2022/06/05 14:38:42;;;;;;;5.57;4.47;;;22.90;99.90;;;;;;6246946;28;20046;-58
2022/06/05 14:41:55;;;;;;;6.47;5.18;;;22.90;99.90;;;;;;6240786;28;20050;-59
2022/06/05 14:45:03;;;;;;;4.90;4.23;;;22.80;99.90;;;;;;6246052;28;20048;-59
2022/06/05 14:48:15;;;;;;;7.32;4.35;;;22.70;99.90;;;;;;6250654;28;20053;-59
2022/06/05 14:51:26;;;;;;;5.32;4.38;;;22.70;99.90;;;;;;6249948;28;20454;-59
2022/06/05 14:58:12;;;;;;;6.07;4.30;;;22.50;99.90;;;;;;6249849;28;20136;-59
2022/06/05 15:01:18;;;;;;;4.93;4.43;;;22.50;99.90;;;;;;6251181;28;20092;-60
2022/06/05 15:04:30;;;;;;;5.88;4.45;;;22.40;99.90;;;;;;6251642;28;20045;-59
2022/06/05 15:07:38;;;;;;;3.95;3.65;;;22.40;99.90;;;;;;6251275;28;20076;-59
2022/06/05 15:10:43;;;;;;;4.13;3.72;;;22.40;99.90;;;;;;6248653;28;20512;-59
2022/06/05 15:13:56;;;;;;;4.53;4.13;;;22.30;99.90;;;;;;6237376;28;20058;-59
2022/06/05 15:17:23;;;;;;;5.03;4.53;;;22.30;99.90;;;;;;6225691;28;20505;-59
2022/06/05 15:20:39;;;;;;;4.78;4.07;;;22.40;99.90;;;;;;6226360;28;20363;-59
2022/06/05 15:23:45;;;;;;;4.47;4.07;;;22.30;99.90;;;;;;6226529;28;20054;-59
2022/06/05 15:26:59;;;;;;;6.57;4.75;;;22.30;99.90;;;;;;6239497;28;20053;-59
2022/06/05 15:30:10;;;;;;;5.78;4.60;;;22.20;99.90;;;;;;6251161;28;20056;-59
2022/06/05 15:33:22;;;;;;;5.45;4.07;;;22.10;99.90;;;;;;6249767;28;20045;-59
2022/06/05 15:36:29;;;;;;;5.57;4.55;;;22.10;99.90;;;;;;6249496;28;20050;-59
2022/06/05 15:39:37;;;;;;;10.00;4.93;;;22.10;99.90;;;;;;6249766;28;20418;-59
2022/06/05 15:42:46;;;;;;;8.20;5.82;;;22.00;99.90;;;;;;6249725;28;20065;-59
2022/06/05 15:45:58;;;;;;;5.15;4.68;;;22.00;99.90;;;;;;6224957;28;20060;-59
2022/06/05 15:49:10;;;;;;;6.95;4.70;;;21.90;99.90;;;;;;6224879;28;20060;-59
2022/06/05 15:52:28;;;;;;;6.43;5.75;;;21.80;99.90;;;;;;6224942;28;20305;-59
2022/06/05 15:55:35;;;;;;;4.85;4.30;;;21.80;99.90;;;;;;6225226;28;20060;-59
2022/06/05 15:58:50;;;;;;;5.57;5.07;;;21.70;99.90;;;;;;6224830;28;20054;-60
2022/06/05 16:02:01;;;;;;;6.00;4.95;;;21.70;99.90;;;;;;6225703;28;20403;-58
2022/06/05 16:05:06;;;;;;;6.55;5.95;;;21.60;99.90;;;;;;6224550;28;20409;-59
2022/06/05 16:08:19;;;;;;;6.15;5.35;;;21.50;99.90;;;;;;6225400;28;20128;-58
2022/06/05 16:11:24;;;;;;;6.40;5.80;;;21.50;99.90;;;;;;6239265;28;20053;-59
2022/06/05 16:14:49;;;;;;;7.78;5.70;;;21.50;99.90;;;;;;6248883;28;20097;-59
2022/06/05 16:18:06;;;;;;;8.50;6.40;;;21.50;99.90;;;;;;6248982;28;20122;-59
2022/06/05 16:21:23;;;;;;;5.65;4.70;;;21.50;99.90;;;;;;6249838;28;20051;-58